Meteo Giornale » Osservazioni meteo Svezia » Stockholm-Arlanda

ore: 12:20 - Osservazioni Meteo Stockholm-Arlanda
Lat. 59° 39' N Lon. 17° 57' E Alt. 38 metri s.l.m.

sereno Europe/Stockholm

19 °C

Sereno

Temp. 24 Ore

10 °C

19 °C

Sud-Ovest

11.1 Km/h

Dew point 7 °C

Umidità 45 %

Visibilità  10 Km

Il sole sorge alle ore 04:45

Il sole tramonta alle ore 21:02

Data e Ora Cielo e Fenomeni T °C DP °C Um. % Pres. hPa Vis. km Vento km/h
Oggi h: 12:20 sereno Sereno 19 7 45 1022 10 SO 11.1
Oggi h: 11:50 poco_nuvoloso Poco Nuvoloso 19 7 45 1022 10 O 11.1
Oggi h: 11:20 sereno Sereno 18 8 51 1022 10 O 13
Oggi h: 10:50 sereno Sereno 18 8 51 1022 10 O/NO 11.1
Oggi h: 10:20 sereno Sereno 17 9 59 1022 10 O 11.1
Oggi h: 09:50 sereno Sereno 17 10 63 1021 10 O/SO 9.3
Oggi h: 09:20 sereno Sereno 17 11 67 1021 10 O/SO 9.3
Oggi h: 08:50 sereno Sereno 14 10 76 1021 10 O/SO 9.3
Oggi h: 08:20 sereno Sereno 14 11 82 1021 10 O 11.1
Oggi h: 07:50 sereno Sereno 14 12 87 1021 10 O 11.1
Oggi h: 07:20 sereno Sereno 12 11 93 1020 10 O 9.3
Oggi h: 06:50 sereno Sereno 12 11 93 1020 10 O/SO 11.1
Oggi h: 06:20 sereno Sereno 12 11 93 1020 10 O/SO 9.3
Oggi h: 05:50 sereno Sereno 11 10 93 1020 10 O/SO 9.3
Oggi h: 05:20 sereno Sereno 11 10 93 1020 10 O/SO 9.3
Oggi h: 04:50 sereno Sereno 11 10 93 1020 10 O/SO 9.3
Oggi h: 04:20 sereno Sereno 11 10 93 1019 10 O/SO 13
Oggi h: 03:50 sereno Sereno 11 9 87 1019 10 O/SO 9.3
Oggi h: 03:20 sereno Sereno 11 9 87 1019 10 O/SO 9.3
Oggi h: 02:50 sereno Sereno 10 9 93 1019 10 O/SO 9.3
Oggi h: 02:20 sereno Sereno 11 9 87 1019 10 O/SO 7.4
Oggi h: 01:50 sereno Sereno 10 9 93 1019 10 O 7.4
Oggi h: 01:20 sereno Sereno 10 8 87 1019 10 O/SO 9.3
Oggi h: 00:50 sereno Sereno 11 8 81 1019 10 O/SO 11.1
Oggi h: 00:20 sereno Sereno 11 8 81 1019 10 O 9.3
Ieri h: 23:50 sereno Sereno 12 9 81 1019 10 SO 9.3
Ieri h: 23:20 sereno Sereno 12 8 76 1018 10 SO 7.4
Ieri h: 22:50 sereno Sereno 12 8 76 1018 10 O/SO 9.3
Ieri h: 22:20 sereno Sereno 12 8 76 1018 10 O/SO 7.4
Ieri h: 21:50 sereno Sereno 14 7 62 1018 10 N 5.5
Ieri h: 21:20 sereno Sereno 14 7 62 1018 10 SO 7.4
Ieri h: 20:50 sereno Sereno 14 7 62 1018 10 O/SO 9.3
Ieri h: 20:20 sereno Sereno 16 7 55 1018 10 O/SO 11.1
Ieri h: 19:50 sereno Sereno 18 8 51 1017 10 O/SO 16.7
Ieri h: 19:20 sereno Sereno 17 6 48 1017 10 O/SO 18.5
Ieri h: 18:50 sereno Sereno 18 7 48 1017 10 O 22.2
Ieri h: 18:20 sereno Sereno 18 7 48 1017 10 O/SO 18.5
Ieri h: 17:50 sereno Sereno 18 7 48 1017 10 O/SO 18.5
Ieri h: 17:20 nuvoloso Nuvoloso 18 8 51 1017 10 O 18.5
Ieri h: 16:50 poco_nuvoloso Poco Nuvoloso 19 9 52 1018 10 O 16.7
Ieri h: 16:20 poco_nuvoloso Poco Nuvoloso 19 9 52 1018 10 O/SO 22.2
Ieri h: 15:50 sereno Sereno 19 10 55 1018 10 O/SO 20.3
Ieri h: 15:20 sereno Sereno 18 10 59 1018 10 O/SO 14.8
Ieri h: 14:50 sereno Sereno 18 12 67 1018 10 O/SO 13
Ieri h: 14:20 coperto_pioggia Pioggia Debole 15 11 76 1018 10 O/SO 18.5
Ieri h: 13:50 nuvoloso Nuvoloso 18 11 63 1018 10 SO 14.8
Ieri h: 13:20 nuvoloso Nuvoloso 18 11 63 1018 10 O 14.8
Ieri h: 12:50 nuvoloso Nuvoloso 17 11 67 1018 10 SO 18.5